Dubberly, Louisiana
Current Conditions -  °F | °C
As of 7:35 PM on Friday 19 Dec 2014 (Local Time) from KMNE Reporting Station
Haze Haze  
Wind Chill: 46°   Ceiling: 700
Heat Index: 46°   Visibility: 5mi
Dew Point: 45°   Wind: 3mph
Humidity: 93%   Direction: 20°NNE
Pressure: 30.19"   Gusts: NA
Location:  32.54°N, 93.24°W
Report Text: KMNE 200135Z AUTO 02003KT 5SM BR OVC007 08/07 A3019 RMK AO2
Loading
Personal Weather Stations






























Interactive Weather Map New forecast layout! Learn more

10-Day Weather Forecast

Advertisements
Track Severe Weather on mobile